ADDS METAR Data INFO
IDs: Format: Raw Decoded Include TAF

Data at: 1103 UTC 17 Jul 2018

KEWR 171051Z 19010KT 10SM FEW012 FEW090 FEW130 BKN250 26/23 A2987 RMK AO2 SLP113 T02560228
KEWR 170951Z 21007KT 10SM FEW075 SCT250 25/23 A2987 RMK AO2 SLP115 T02500228
KEWR 170851Z 19009KT 10SM FEW075 BKN250 26/23 A2987 RMK AO2 SLP115 T02560228 58009
KEWR 170751Z 20007KT 10SM SCT075 BKN250 26/22 A2988 RMK AO2 SLP117 T02560222
KEWR 170651Z 20009KT 10SM BKN250 26/22 A2989 RMK AO2 SLP122 T02610222
KEWR 170551Z 20011KT 10SM SCT250 27/22 A2990 RMK AO2 SLP124 T02670217 10306 20267 50000
KEWR 170451Z 19010KT 10SM SCT250 27/22 A2990 RMK AO2 SLP126 T02720217 403440222
KEWR 170351Z 20012KT 10SM SCT250 28/22 A2991 RMK AO2 SLP126 T02780217
KEWR 170251Z 20010KT 10SM FEW045 BKN250 28/22 A2990 RMK AO2 SLP124 T02830222 50005
KEWR 170151Z 19008KT 10SM FEW045 BKN250 29/22 A2990 RMK AO2 SLP126 T02940222
KEWR 170051Z 19007KT 10SM FEW045 FEW100 BKN250 30/22 A2989 RMK AO2 SLP120 T03000222
KEWR 162351Z 17009KT 10SM FEW045 FEW120 BKN250 31/22 A2988 RMK AO2 SLP119 T03060222 10328 20306 56005
KEWR 162251Z 16009KT 10SM FEW045 FEW120 BKN250 31/23 A2989 RMK AO2 SLP120 T03060228
KEWR 162151Z 15007KT 10SM FEW045 FEW090 BKN250 31/22 A2989 RMK AO2 SLP120 CB DSNT NE MOV E T03110222
KEWR 162051Z 15010KT 10SM FEW045TCU FEW090 BKN250 32/22 A2990 RMK AO2 SLP125 TCU OHD T03170222 56013
KEWR 161951Z 15008KT 10SM SCT045TCU SCT090 SCT140 BKN250 32/22 A2991 RMK AO2 SLP127 TCU OHD T03220222
KEWR 161851Z 15008KT 120V180 10SM SCT045TCU SCT060 BKN250 32/22 A2992 RMK AO2 SLP133 TCU OHD T03170222
KEWR 161751Z 16008KT 10SM SCT045TCU 32/22 A2994 RMK AO2 SLP137 TCU OHD T03170222 10344 20256 58012
KEWR 161651Z 22007KT 190V260 10SM SCT039 34/21 A2995 RMK AO2 SLP143 T03390211
KEWR 161551Z VRB06KT 10SM SCT037 SCT250 32/22 A2996 RMK AO2 SLP146 T03170217
KEWR 161451Z 22009KT 10SM FEW035 SCT250 32/22 A2997 RMK AO2 SLP149 T03170222 58004
KEWR 161351Z 24007KT 220V290 10SM FEW250 30/22 A2998 RMK AO2 SLP152 T03000222
KEWR 161251Z 25006KT 10SM FEW250 28/22 A2998 RMK AO2 SLP152 T02780217 $
KEWR 161151Z 23005KT 10SM FEW250 26/22 A2999 RMK AO2 SLP153 70020 T02560217 10256 20222 51009 $
KEWR 161051Z 23007KT 10SM FEW150 FEW250 24/21 A2998 RMK AO2 SLP152 T02390211 $
KEWR 160951Z 21004KT 10SM FEW150 FEW250 23/21 A2997 RMK AO2 SLP148 T02280211 $
KEWR 160851Z 22006KT 10SM FEW250 23/21 A2996 RMK AO2 SLP144 T02280206 58003 $
KEWR 160751Z 24004KT 10SM FEW250 23/21 A2997 RMK AO2 SLP148 T02330206 $
KEWR 160651Z 21004KT 10SM FEW250 23/21 A2997 RMK AO2 SLP149 T02330206 $
KEWR 160551Z 23006KT 10SM FEW250 24/21 A2997 RMK AO2 SLP147 T02440206 10283 20244 58000 $
KEWR 160451Z 22007KT 10SM FEW250 25/21 A2997 RMK AO2 SLP149 T02500211 403000206 $
KEWR 160351Z 23006KT 10SM FEW250 26/21 A2997 RMK AO2 SLP149 T02610206 $
KEWR 160251Z 20006KT 10SM FEW250 26/22 A2997 RMK AO2 SLP147 T02560217 50008 $
KEWR 160151Z 21007KT 10SM FEW150 FEW250 27/22 A2997 RMK AO2 SLP148 T02670217 $
KEWR 160051Z 22009KT 10SM FEW060 FEW150 SCT250 27/21 A2996 RMK AO2 SLP144 T02720206 $
KEWR 152351Z 22009KT 10SM FEW060 FEW140 SCT250 28/19 A2994 RMK AO2 SLP139 TCU DSNT N T02830189 10300 20244 53001 $